sensor_id;sensor_type;location;lat;lon;timestamp;P1;durP1;ratioP1;P2;durP2;ratioP2
15816;SDS011;8009;50.070;8.232;2022-07-23T00:00:45;7.88;;;4.53;;
15816;SDS011;8009;50.070;8.232;2022-07-23T00:03:22;6.43;;;5.00;;
15816;SDS011;8009;50.070;8.232;2022-07-23T00:05:52;5.03;;;4.53;;
15816;SDS011;8009;50.070;8.232;2022-07-23T00:08:20;5.97;;;4.82;;
15816;SDS011;8009;50.070;8.232;2022-07-23T00:10:51;4.60;;;4.20;;
15816;SDS011;8009;50.070;8.232;2022-07-23T00:13:21;6.00;;;4.47;;
15816;SDS011;8009;50.070;8.232;2022-07-23T00:15:51;5.13;;;4.68;;
15816;SDS011;8009;50.070;8.232;2022-07-23T00:18:21;5.47;;;4.97;;
15816;SDS011;8009;50.070;8.232;2022-07-23T00:20:50;5.07;;;4.57;;
15816;SDS011;8009;50.070;8.232;2022-07-23T00:23:21;5.57;;;5.10;;
15816;SDS011;8009;50.070;8.232;2022-07-23T00:25:52;5.10;;;4.60;;
15816;SDS011;8009;50.070;8.232;2022-07-23T00:28:21;7.35;;;4.72;;
15816;SDS011;8009;50.070;8.232;2022-07-23T00:30:49;5.47;;;4.95;;
15816;SDS011;8009;50.070;8.232;2022-07-23T00:33:19;5.60;;;4.88;;
15816;SDS011;8009;50.070;8.232;2022-07-23T00:35:48;4.75;;;4.43;;
15816;SDS011;8009;50.070;8.232;2022-07-23T00:38:16;5.05;;;4.65;;
15816;SDS011;8009;50.070;8.232;2022-07-23T00:40:45;5.03;;;4.60;;
15816;SDS011;8009;50.070;8.232;2022-07-23T00:43:16;4.90;;;4.50;;
15816;SDS011;8009;50.070;8.232;2022-07-23T00:45:44;4.95;;;4.45;;
15816;SDS011;8009;50.070;8.232;2022-07-23T00:48:13;5.47;;;5.07;;
15816;SDS011;8009;50.070;8.232;2022-07-23T00:50:42;7.35;;;4.75;;
15816;SDS011;8009;50.070;8.232;2022-07-23T00:53:11;8.32;;;4.90;;
15816;SDS011;8009;50.070;8.232;2022-07-23T00:55:40;9.10;;;5.22;;
15816;SDS011;8009;50.070;8.232;2022-07-23T00:58:10;5.57;;;4.80;;
15816;SDS011;8009;50.070;8.232;2022-07-23T01:00:42;5.75;;;5.25;;
15816;SDS011;8009;50.070;8.232;2022-07-23T01:03:11;6.93;;;5.32;;
15816;SDS011;8009;50.070;8.232;2022-07-23T01:05:44;5.82;;;5.12;;
15816;SDS011;8009;50.070;8.232;2022-07-23T01:08:13;5.28;;;4.78;;
15816;SDS011;8009;50.070;8.232;2022-07-23T01:10:42;4.90;;;4.47;;
15816;SDS011;8009;50.070;8.232;2022-07-23T01:13:15;5.90;;;5.35;;
15816;SDS011;8009;50.070;8.232;2022-07-23T01:15:49;5.18;;;4.78;;
15816;SDS011;8009;50.070;8.232;2022-07-23T01:18:18;5.70;;;5.10;;
15816;SDS011;8009;50.070;8.232;2022-07-23T01:20:47;6.28;;;4.88;;
15816;SDS011;8009;50.070;8.232;2022-07-23T01:23:20;6.07;;;5.00;;
15816;SDS011;8009;50.070;8.232;2022-07-23T01:25:51;5.60;;;5.05;;
15816;SDS011;8009;50.070;8.232;2022-07-23T01:28:20;5.28;;;4.88;;
15816;SDS011;8009;50.070;8.232;2022-07-23T01:30:49;5.95;;;5.35;;
15816;SDS011;8009;50.070;8.232;2022-07-23T01:33:18;6.80;;;5.45;;
15816;SDS011;8009;50.070;8.232;2022-07-23T01:35:46;5.78;;;5.18;;
15816;SDS011;8009;50.070;8.232;2022-07-23T01:38:15;5.88;;;5.13;;
15816;SDS011;8009;50.070;8.232;2022-07-23T01:40:47;6.10;;;5.45;;
15816;SDS011;8009;50.070;8.232;2022-07-23T01:43:16;6.78;;;5.25;;
15816;SDS011;8009;50.070;8.232;2022-07-23T01:45:44;5.88;;;5.38;;
15816;SDS011;8009;50.070;8.232;2022-07-23T01:48:12;6.68;;;6.07;;
15816;SDS011;8009;50.070;8.232;2022-07-23T01:50:41;6.07;;;5.57;;
15816;SDS011;8009;50.070;8.232;2022-07-23T01:53:12;6.00;;;5.40;;
15816;SDS011;8009;50.070;8.232;2022-07-23T01:55:40;5.40;;;4.90;;
15816;SDS011;8009;50.070;8.232;2022-07-23T01:58:12;6.07;;;5.57;;
15816;SDS011;8009;50.070;8.232;2022-07-23T02:00:40;6.97;;;5.78;;
15816;SDS011;8009;50.070;8.232;2022-07-23T02:03:27;5.60;;;5.05;;
15816;SDS011;8009;50.070;8.232;2022-07-23T02:06:04;6.35;;;5.75;;
15816;SDS011;8009;50.070;8.232;2022-07-23T02:08:33;5.55;;;4.90;;
15816;SDS011;8009;50.070;8.232;2022-07-23T02:11:01;7.00;;;5.35;;
15816;SDS011;8009;50.070;8.232;2022-07-23T02:13:33;5.82;;;5.20;;
15816;SDS011;8009;50.070;8.232;2022-07-23T02:16:02;9.40;;;6.03;;
15816;SDS011;8009;50.070;8.232;2022-07-23T02:18:32;6.75;;;6.03;;
15816;SDS011;8009;50.070;8.232;2022-07-23T02:21:01;6.60;;;5.50;;
15816;SDS011;8009;50.070;8.232;2022-07-23T02:23:35;7.03;;;5.85;;
15816;SDS011;8009;50.070;8.232;2022-07-23T02:26:04;6.22;;;5.63;;
15816;SDS011;8009;50.070;8.232;2022-07-23T02:28:35;6.03;;;5.40;;
15816;SDS011;8009;50.070;8.232;2022-07-23T02:31:04;6.90;;;6.20;;
15816;SDS011;8009;50.070;8.232;2022-07-23T02:33:35;6.00;;;5.40;;
15816;SDS011;8009;50.070;8.232;2022-07-23T02:36:03;6.28;;;5.78;;
15816;SDS011;8009;50.070;8.232;2022-07-23T02:38:34;7.15;;;5.65;;
15816;SDS011;8009;50.070;8.232;2022-07-23T02:41:03;5.85;;;5.45;;
15816;SDS011;8009;50.070;8.232;2022-07-23T02:43:31;7.07;;;5.78;;
15816;SDS011;8009;50.070;8.232;2022-07-23T02:46:04;7.43;;;5.50;;
15816;SDS011;8009;50.070;8.232;2022-07-23T02:48:33;5.97;;;5.47;;
15816;SDS011;8009;50.070;8.232;2022-07-23T02:51:02;7.40;;;6.80;;
15816;SDS011;8009;50.070;8.232;2022-07-23T02:53:31;6.90;;;5.85;;
15816;SDS011;8009;50.070;8.232;2022-07-23T02:56:02;6.75;;;6.15;;
15816;SDS011;8009;50.070;8.232;2022-07-23T02:58:30;6.28;;;5.68;;
15816;SDS011;8009;50.070;8.232;2022-07-23T03:00:59;7.03;;;6.20;;
15816;SDS011;8009;50.070;8.232;2022-07-23T03:03:34;6.82;;;6.25;;
15816;SDS011;8009;50.070;8.232;2022-07-23T03:06:04;7.88;;;6.25;;
15816;SDS011;8009;50.070;8.232;2022-07-23T03:08:41;6.38;;;5.78;;
15816;SDS011;8009;50.070;8.232;2022-07-23T03:11:09;6.63;;;6.03;;
15816;SDS011;8009;50.070;8.232;2022-07-23T03:13:38;6.97;;;5.85;;
15816;SDS011;8009;50.070;8.232;2022-07-23T03:16:08;6.25;;;5.65;;
15816;SDS011;8009;50.070;8.232;2022-07-23T03:18:39;6.50;;;5.80;;
15816;SDS011;8009;50.070;8.232;2022-07-23T03:21:12;7.30;;;6.60;;
15816;SDS011;8009;50.070;8.232;2022-07-23T03:23:43;6.63;;;6.03;;
15816;SDS011;8009;50.070;8.232;2022-07-23T03:26:15;5.97;;;5.45;;
15816;SDS011;8009;50.070;8.232;2022-07-23T03:28:44;6.30;;;5.25;;
15816;SDS011;8009;50.070;8.232;2022-07-23T03:31:16;6.00;;;5.45;;
15816;SDS011;8009;50.070;8.232;2022-07-23T03:33:49;6.80;;;5.18;;
15816;SDS011;8009;50.070;8.232;2022-07-23T03:36:18;6.10;;;5.50;;
15816;SDS011;8009;50.070;8.232;2022-07-23T03:38:48;6.32;;;5.72;;
15816;SDS011;8009;50.070;8.232;2022-07-23T03:41:17;5.53;;;5.03;;
15816;SDS011;8009;50.070;8.232;2022-07-23T03:43:47;6.03;;;5.30;;
15816;SDS011;8009;50.070;8.232;2022-07-23T03:46:15;6.57;;;5.95;;
15816;SDS011;8009;50.070;8.232;2022-07-23T03:48:44;6.32;;;5.72;;
15816;SDS011;8009;50.070;8.232;2022-07-23T03:51:15;5.90;;;5.22;;
15816;SDS011;8009;50.070;8.232;2022-07-23T03:53:44;5.75;;;5.10;;
15816;SDS011;8009;50.070;8.232;2022-07-23T03:56:14;6.00;;;5.43;;
15816;SDS011;8009;50.070;8.232;2022-07-23T03:58:45;6.30;;;5.70;;
15816;SDS011;8009;50.070;8.232;2022-07-23T04:01:13;6.68;;;6.07;;
15816;SDS011;8009;50.070;8.232;2022-07-23T04:03:42;7.60;;;5.82;;
15816;SDS011;8009;50.070;8.232;2022-07-23T04:06:11;7.90;;;6.20;;
15816;SDS011;8009;50.070;8.232;2022-07-23T04:08:43;6.82;;;6.10;;
15816;SDS011;8009;50.070;8.232;2022-07-23T04:11:11;6.90;;;6.20;;
15816;SDS011;8009;50.070;8.232;2022-07-23T04:13:40;7.75;;;6.05;;
15816;SDS011;8009;50.070;8.232;2022-07-23T04:16:11;7.60;;;6.60;;
15816;SDS011;8009;50.070;8.232;2022-07-23T04:18:39;6.55;;;5.90;;
15816;SDS011;8009;50.070;8.232;2022-07-23T04:21:10;7.78;;;6.97;;
15816;SDS011;8009;50.070;8.232;2022-07-23T04:23:42;8.23;;;6.38;;
15816;SDS011;8009;50.070;8.232;2022-07-23T04:26:14;7.85;;;7.15;;
15816;SDS011;8009;50.070;8.232;2022-07-23T04:28:44;7.13;;;6.43;;
15816;SDS011;8009;50.070;8.232;2022-07-23T04:31:13;7.35;;;6.63;;
15816;SDS011;8009;50.070;8.232;2022-07-23T04:33:41;7.68;;;6.85;;
15816;SDS011;8009;50.070;8.232;2022-07-23T04:36:10;7.85;;;7.15;;
15816;SDS011;8009;50.070;8.232;2022-07-23T04:38:45;7.43;;;6.50;;
15816;SDS011;8009;50.070;8.232;2022-07-23T04:41:13;7.60;;;6.90;;
15816;SDS011;8009;50.070;8.232;2022-07-23T04:43:44;8.57;;;7.50;;
15816;SDS011;8009;50.070;8.232;2022-07-23T04:46:12;7.85;;;7.13;;
15816;SDS011;8009;50.070;8.232;2022-07-23T04:48:53;7.32;;;6.60;;
15816;SDS011;8009;50.070;8.232;2022-07-23T04:51:21;9.18;;;7.18;;
15816;SDS011;8009;50.070;8.232;2022-07-23T04:53:54;8.65;;;7.18;;
15816;SDS011;8009;50.070;8.232;2022-07-23T04:56:23;9.60;;;6.78;;
15816;SDS011;8009;50.070;8.232;2022-07-23T04:58:51;7.53;;;6.85;;
15816;SDS011;8009;50.070;8.232;2022-07-23T05:01:28;9.13;;;7.03;;
15816;SDS011;8009;50.070;8.232;2022-07-23T05:03:57;8.45;;;7.50;;
15816;SDS011;8009;50.070;8.232;2022-07-23T05:06:25;7.55;;;6.93;;
15816;SDS011;8009;50.070;8.232;2022-07-23T05:08:58;7.47;;;6.78;;
15816;SDS011;8009;50.070;8.232;2022-07-23T05:11:26;9.07;;;8.27;;
15816;SDS011;8009;50.070;8.232;2022-07-23T05:13:55;7.47;;;6.82;;
15816;SDS011;8009;50.070;8.232;2022-07-23T05:16:23;10.27;;;6.85;;
15816;SDS011;8009;50.070;8.232;2022-07-23T05:18:51;7.65;;;6.95;;
15816;SDS011;8009;50.070;8.232;2022-07-23T05:21:20;9.98;;;6.88;;
15816;SDS011;8009;50.070;8.232;2022-07-23T05:23:48;8.05;;;7.28;;
15816;SDS011;8009;50.070;8.232;2022-07-23T05:26:22;8.13;;;7.25;;
15816;SDS011;8009;50.070;8.232;2022-07-23T05:28:53;8.18;;;7.45;;
15816;SDS011;8009;50.070;8.232;2022-07-23T05:31:22;8.52;;;6.55;;
15816;SDS011;8009;50.070;8.232;2022-07-23T05:33:54;7.80;;;7.00;;
15816;SDS011;8009;50.070;8.232;2022-07-23T05:36:31;7.28;;;6.57;;
15816;SDS011;8009;50.070;8.232;2022-07-23T05:38:59;7.43;;;6.72;;
15816;SDS011;8009;50.070;8.232;2022-07-23T05:41:34;8.00;;;7.20;;
15816;SDS011;8009;50.070;8.232;2022-07-23T05:44:04;8.10;;;7.35;;
15816;SDS011;8009;50.070;8.232;2022-07-23T05:46:32;8.65;;;7.72;;
15816;SDS011;8009;50.070;8.232;2022-07-23T05:49:03;7.88;;;7.18;;
15816;SDS011;8009;50.070;8.232;2022-07-23T05:51:32;6.72;;;6.13;;
15816;SDS011;8009;50.070;8.232;2022-07-23T05:54:00;7.50;;;6.28;;
15816;SDS011;8009;50.070;8.232;2022-07-23T05:56:33;8.07;;;7.28;;
15816;SDS011;8009;50.070;8.232;2022-07-23T05:59:02;8.32;;;6.70;;
15816;SDS011;8009;50.070;8.232;2022-07-23T06:01:31;7.22;;;6.45;;
15816;SDS011;8009;50.070;8.232;2022-07-23T06:03:59;8.07;;;6.30;;
15816;SDS011;8009;50.070;8.232;2022-07-23T06:06:31;7.05;;;6.20;;
15816;SDS011;8009;50.070;8.232;2022-07-23T06:08:59;6.93;;;6.35;;
15816;SDS011;8009;50.070;8.232;2022-07-23T06:11:28;6.82;;;6.22;;
15816;SDS011;8009;50.070;8.232;2022-07-23T06:13:59;7.10;;;6.47;;
15816;SDS011;8009;50.070;8.232;2022-07-23T06:16:28;7.22;;;5.97;;
15816;SDS011;8009;50.070;8.232;2022-07-23T06:18:56;7.68;;;6.88;;
15816;SDS011;8009;50.070;8.232;2022-07-23T06:21:25;6.53;;;5.93;;
15816;SDS011;8009;50.070;8.232;2022-07-23T06:23:53;6.40;;;5.80;;
15816;SDS011;8009;50.070;8.232;2022-07-23T06:26:22;7.22;;;5.63;;
15816;SDS011;8009;50.070;8.232;2022-07-23T06:28:52;6.75;;;6.07;;
15816;SDS011;8009;50.070;8.232;2022-07-23T06:31:23;7.72;;;6.18;;
15816;SDS011;8009;50.070;8.232;2022-07-23T06:33:53;7.35;;;6.43;;
15816;SDS011;8009;50.070;8.232;2022-07-23T06:36:22;7.03;;;5.95;;
15816;SDS011;8009;50.070;8.232;2022-07-23T06:38:51;6.13;;;5.53;;
15816;SDS011;8009;50.070;8.232;2022-07-23T06:41:21;7.50;;;5.90;;
15816;SDS011;8009;50.070;8.232;2022-07-23T06:43:49;8.75;;;6.28;;
15816;SDS011;8009;50.070;8.232;2022-07-23T06:46:18;7.65;;;6.10;;
15816;SDS011;8009;50.070;8.232;2022-07-23T06:48:52;7.65;;;5.88;;
15816;SDS011;8009;50.070;8.232;2022-07-23T06:51:21;6.22;;;5.63;;
15816;SDS011;8009;50.070;8.232;2022-07-23T06:54:02;7.97;;;4.82;;
15816;SDS011;8009;50.070;8.232;2022-07-23T06:56:32;5.75;;;5.25;;
15816;SDS011;8009;50.070;8.232;2022-07-23T06:59:27;7.28;;;5.45;;
15816;SDS011;8009;50.070;8.232;2022-07-23T07:01:56;5.30;;;4.82;;
15816;SDS011;8009;50.070;8.232;2022-07-23T07:04:28;6.10;;;5.30;;
15816;SDS011;8009;50.070;8.232;2022-07-23T07:06:57;5.32;;;4.82;;
15816;SDS011;8009;50.070;8.232;2022-07-23T07:09:25;7.03;;;4.75;;
15816;SDS011;8009;50.070;8.232;2022-07-23T07:11:53;7.85;;;5.22;;
15816;SDS011;8009;50.070;8.232;2022-07-23T07:14:25;5.85;;;5.07;;
15816;SDS011;8009;50.070;8.232;2022-07-23T07:16:55;5.70;;;5.00;;
15816;SDS011;8009;50.070;8.232;2022-07-23T07:19:23;6.50;;;5.95;;
15816;SDS011;8009;50.070;8.232;2022-07-23T07:21:54;5.93;;;5.40;;
15816;SDS011;8009;50.070;8.232;2022-07-23T07:24:22;6.72;;;5.43;;
15816;SDS011;8009;50.070;8.232;2022-07-23T07:26:51;5.75;;;5.13;;
15816;SDS011;8009;50.070;8.232;2022-07-23T07:29:20;6.90;;;5.90;;
15816;SDS011;8009;50.070;8.232;2022-07-23T07:31:48;6.25;;;5.72;;
15816;SDS011;8009;50.070;8.232;2022-07-23T07:34:16;6.50;;;5.90;;
15816;SDS011;8009;50.070;8.232;2022-07-23T07:36:45;5.95;;;5.13;;
15816;SDS011;8009;50.070;8.232;2022-07-23T07:39:17;6.60;;;5.88;;
15816;SDS011;8009;50.070;8.232;2022-07-23T07:41:46;6.15;;;5.45;;
15816;SDS011;8009;50.070;8.232;2022-07-23T07:44:14;6.07;;;5.47;;
15816;SDS011;8009;50.070;8.232;2022-07-23T07:46:45;5.15;;;4.65;;
15816;SDS011;8009;50.070;8.232;2022-07-23T07:49:14;5.72;;;5.22;;
15816;SDS011;8009;50.070;8.232;2022-07-23T07:51:44;5.50;;;5.00;;
15816;SDS011;8009;50.070;8.232;2022-07-23T07:54:13;7.40;;;5.53;;
15816;SDS011;8009;50.070;8.232;2022-07-23T07:56:44;5.85;;;4.78;;
15816;SDS011;8009;50.070;8.232;2022-07-23T07:59:13;5.20;;;4.70;;
15816;SDS011;8009;50.070;8.232;2022-07-23T08:01:44;5.45;;;5.00;;
15816;SDS011;8009;50.070;8.232;2022-07-23T08:04:13;6.53;;;5.20;;
15816;SDS011;8009;50.070;8.232;2022-07-23T08:06:42;5.35;;;4.90;;
15816;SDS011;8009;50.070;8.232;2022-07-23T08:09:11;5.85;;;5.30;;
15816;SDS011;8009;50.070;8.232;2022-07-23T08:11:39;9.38;;;5.78;;
15816;SDS011;8009;50.070;8.232;2022-07-23T08:14:11;5.47;;;5.03;;
15816;SDS011;8009;50.070;8.232;2022-07-23T08:16:40;4.75;;;4.35;;
15816;SDS011;8009;50.070;8.232;2022-07-23T08:19:11;4.40;;;4.10;;
15816;SDS011;8009;50.070;8.232;2022-07-23T08:21:41;4.00;;;3.70;;
15816;SDS011;8009;50.070;8.232;2022-07-23T08:24:09;5.32;;;4.75;;
15816;SDS011;8009;50.070;8.232;2022-07-23T08:26:43;4.00;;;3.70;;
15816;SDS011;8009;50.070;8.232;2022-07-23T08:29:17;4.38;;;4.07;;
15816;SDS011;8009;50.070;8.232;2022-07-23T08:31:46;4.82;;;3.42;;
15816;SDS011;8009;50.070;8.232;2022-07-23T08:34:15;4.32;;;4.00;;
15816;SDS011;8009;50.070;8.232;2022-07-23T08:36:43;4.03;;;3.72;;
15816;SDS011;8009;50.070;8.232;2022-07-23T08:39:11;3.95;;;3.65;;
15816;SDS011;8009;50.070;8.232;2022-07-23T08:41:41;4.22;;;3.92;;
15816;SDS011;8009;50.070;8.232;2022-07-23T08:44:17;4.07;;;3.75;;
15816;SDS011;8009;50.070;8.232;2022-07-23T08:46:48;3.70;;;3.40;;
15816;SDS011;8009;50.070;8.232;2022-07-23T08:49:18;4.47;;;4.07;;
15816;SDS011;8009;50.070;8.232;2022-07-23T08:51:47;4.82;;;3.90;;
15816;SDS011;8009;50.070;8.232;2022-07-23T08:54:16;4.20;;;3.80;;
15816;SDS011;8009;50.070;8.232;2022-07-23T08:56:44;3.90;;;3.60;;
15816;SDS011;8009;50.070;8.232;2022-07-23T08:59:13;4.28;;;3.60;;
15816;SDS011;8009;50.070;8.232;2022-07-23T09:01:44;3.67;;;3.40;;
15816;SDS011;8009;50.070;8.232;2022-07-23T09:04:13;4.60;;;4.30;;
15816;SDS011;8009;50.070;8.232;2022-07-23T09:06:43;5.38;;;4.20;;
15816;SDS011;8009;50.070;8.232;2022-07-23T09:09:16;4.55;;;4.07;;
15816;SDS011;8009;50.070;8.232;2022-07-23T09:11:45;5.47;;;3.80;;
15816;SDS011;8009;50.070;8.232;2022-07-23T09:14:14;4.70;;;4.20;;
15816;SDS011;8009;50.070;8.232;2022-07-23T09:16:45;4.47;;;4.07;;
15816;SDS011;8009;50.070;8.232;2022-07-23T09:19:14;4.60;;;4.20;;
15816;SDS011;8009;50.070;8.232;2022-07-23T09:21:48;4.40;;;3.80;;
15816;SDS011;8009;50.070;8.232;2022-07-23T09:24:19;4.53;;;3.92;;
15816;SDS011;8009;50.070;8.232;2022-07-23T09:26:49;4.80;;;4.10;;
15816;SDS011;8009;50.070;8.232;2022-07-23T09:29:18;4.70;;;4.30;;
15816;SDS011;8009;50.070;8.232;2022-07-23T09:31:51;4.65;;;4.28;;
15816;SDS011;8009;50.070;8.232;2022-07-23T09:34:21;5.03;;;4.60;;
15816;SDS011;8009;50.070;8.232;2022-07-23T09:36:53;5.07;;;4.55;;
15816;SDS011;8009;50.070;8.232;2022-07-23T09:39:27;3.97;;;3.67;;
15816;SDS011;8009;50.070;8.232;2022-07-23T09:41:57;4.13;;;3.78;;
15816;SDS011;8009;50.070;8.232;2022-07-23T09:44:40;4.72;;;4.32;;
15816;SDS011;8009;50.070;8.232;2022-07-23T09:47:12;4.85;;;4.47;;
15816;SDS011;8009;50.070;8.232;2022-07-23T09:49:42;7.05;;;4.45;;
15816;SDS011;8009;50.070;8.232;2022-07-23T09:52:26;6.75;;;4.80;;
15816;SDS011;8009;50.070;8.232;2022-07-23T09:54:58;6.80;;;4.60;;
15816;SDS011;8009;50.070;8.232;2022-07-23T09:57:28;5.80;;;4.90;;
15816;SDS011;8009;50.070;8.232;2022-07-23T09:59:58;6.45;;;4.70;;
15816;SDS011;8009;50.070;8.232;2022-07-23T10:02:32;5.35;;;4.85;;
15816;SDS011;8009;50.070;8.232;2022-07-23T10:05:01;5.05;;;4.65;;
15816;SDS011;8009;50.070;8.232;2022-07-23T10:07:33;5.43;;;5.03;;
15816;SDS011;8009;50.070;8.232;2022-07-23T10:10:05;5.45;;;4.95;;
15816;SDS011;8009;50.070;8.232;2022-07-23T10:12:36;4.88;;;4.47;;
15816;SDS011;8009;50.070;8.232;2022-07-23T10:15:17;5.38;;;4.88;;
15816;SDS011;8009;50.070;8.232;2022-07-23T10:17:50;4.45;;;4.15;;
15816;SDS011;8009;50.070;8.232;2022-07-23T10:20:20;4.20;;;3.80;;
15816;SDS011;8009;50.070;8.232;2022-07-23T10:22:59;4.85;;;4.43;;
15816;SDS011;8009;50.070;8.232;2022-07-23T10:25:40;4.47;;;4.05;;
15816;SDS011;8009;50.070;8.232;2022-07-23T10:28:19;5.40;;;4.90;;
15816;SDS011;8009;50.070;8.232;2022-07-23T10:31:00;4.90;;;4.40;;
15816;SDS011;8009;50.070;8.232;2022-07-23T10:33:41;6.00;;;4.35;;
15816;SDS011;8009;50.070;8.232;2022-07-23T10:36:20;4.40;;;4.00;;
15816;SDS011;8009;50.070;8.232;2022-07-23T10:39:06;4.82;;;4.43;;
15816;SDS011;8009;50.070;8.232;2022-07-23T10:41:43;4.45;;;4.15;;
15816;SDS011;8009;50.070;8.232;2022-07-23T10:44:13;5.25;;;4.78;;
15816;SDS011;8009;50.070;8.232;2022-07-23T10:46:54;4.38;;;4.07;;
15816;SDS011;8009;50.070;8.232;2022-07-23T10:49:35;4.65;;;4.20;;
15816;SDS011;8009;50.070;8.232;2022-07-23T10:54:53;4.45;;;4.07;;
15816;SDS011;8009;50.070;8.232;2022-07-23T10:57:25;4.32;;;3.92;;
15816;SDS011;8009;50.070;8.232;2022-07-23T11:02:48;4.43;;;4.13;;
15816;SDS011;8009;50.070;8.232;2022-07-23T11:05:24;4.40;;;4.10;;
15816;SDS011;8009;50.070;8.232;2022-07-23T11:08:17;4.82;;;4.40;;
15816;SDS011;8009;50.070;8.232;2022-07-23T11:10:49;4.45;;;3.97;;
15816;SDS011;8009;50.070;8.232;2022-07-23T11:13:29;4.22;;;3.90;;
15816;SDS011;8009;50.070;8.232;2022-07-23T11:16:17;4.22;;;3.92;;
15816;SDS011;8009;50.070;8.232;2022-07-23T11:18:58;4.78;;;4.38;;
15816;SDS011;8009;50.070;8.232;2022-07-23T11:21:43;4.22;;;3.92;;
15816;SDS011;8009;50.070;8.232;2022-07-23T11:24:14;4.82;;;4.30;;
15816;SDS011;8009;50.070;8.232;2022-07-23T11:26:56;4.70;;;4.30;;
15816;SDS011;8009;50.070;8.232;2022-07-23T11:29:38;4.25;;;3.83;;
15816;SDS011;8009;50.070;8.232;2022-07-23T11:32:36;4.85;;;4.30;;
15816;SDS011;8009;50.070;8.232;2022-07-23T11:35:22;4.75;;;4.35;;
15816;SDS011;8009;50.070;8.232;2022-07-23T11:38:02;4.43;;;4.03;;
15816;SDS011;8009;50.070;8.232;2022-07-23T11:40:35;4.53;;;4.10;;
15816;SDS011;8009;50.070;8.232;2022-07-23T11:43:04;3.67;;;3.47;;
15816;SDS011;8009;50.070;8.232;2022-07-23T11:45:38;4.70;;;3.63;;
15816;SDS011;8009;50.070;8.232;2022-07-23T11:48:14;4.85;;;4.38;;
15816;SDS011;8009;50.070;8.232;2022-07-23T11:50:46;5.10;;;4.70;;
15816;SDS011;8009;50.070;8.232;2022-07-23T11:53:24;4.57;;;4.18;;
15816;SDS011;8009;50.070;8.232;2022-07-23T11:56:02;4.10;;;3.80;;
15816;SDS011;8009;50.070;8.232;2022-07-23T11:58:32;4.43;;;4.13;;
15816;SDS011;8009;50.070;8.232;2022-07-23T12:01:01;4.78;;;4.38;;
15816;SDS011;8009;50.070;8.232;2022-07-23T12:03:32;5.00;;;3.97;;
15816;SDS011;8009;50.070;8.232;2022-07-23T12:06:00;4.47;;;4.18;;
15816;SDS011;8009;50.070;8.232;2022-07-23T12:08:32;4.32;;;3.97;;
15816;SDS011;8009;50.070;8.232;2022-07-23T12:11:02;5.05;;;4.55;;
15816;SDS011;8009;50.070;8.232;2022-07-23T12:13:34;8.00;;;4.30;;
15816;SDS011;8009;50.070;8.232;2022-07-23T12:16:03;6.30;;;4.97;;
15816;SDS011;8009;50.070;8.232;2022-07-23T12:18:41;4.53;;;4.13;;
15816;SDS011;8009;50.070;8.232;2022-07-23T12:21:10;5.22;;;4.82;;
15816;SDS011;8009;50.070;8.232;2022-07-23T12:23:41;4.60;;;4.20;;
15816;SDS011;8009;50.070;8.232;2022-07-23T12:26:10;5.53;;;5.03;;
15816;SDS011;8009;50.070;8.232;2022-07-23T12:28:39;4.80;;;4.40;;
15816;SDS011;8009;50.070;8.232;2022-07-23T12:31:10;5.32;;;4.70;;
15816;SDS011;8009;50.070;8.232;2022-07-23T12:33:42;4.93;;;4.45;;
15816;SDS011;8009;50.070;8.232;2022-07-23T12:36:36;4.68;;;4.30;;
15816;SDS011;8009;50.070;8.232;2022-07-23T12:39:09;5.10;;;4.70;;
15816;SDS011;8009;50.070;8.232;2022-07-23T12:41:50;5.00;;;4.60;;
15816;SDS011;8009;50.070;8.232;2022-07-23T12:44:18;4.53;;;4.22;;
15816;SDS011;8009;50.070;8.232;2022-07-23T12:46:49;5.80;;;5.07;;
15816;SDS011;8009;50.070;8.232;2022-07-23T12:49:25;5.05;;;4.63;;
15816;SDS011;8009;50.070;8.232;2022-07-23T12:51:54;5.30;;;4.38;;
15816;SDS011;8009;50.070;8.232;2022-07-23T12:54:28;5.05;;;4.57;;
15816;SDS011;8009;50.070;8.232;2022-07-23T12:56:57;5.53;;;4.68;;
15816;SDS011;8009;50.070;8.232;2022-07-23T12:59:30;6.55;;;4.70;;
15816;SDS011;8009;50.070;8.232;2022-07-23T13:02:03;5.70;;;5.07;;
15816;SDS011;8009;50.070;8.232;2022-07-23T13:04:32;5.03;;;4.63;;
15816;SDS011;8009;50.070;8.232;2022-07-23T13:07:03;5.05;;;4.63;;
15816;SDS011;8009;50.070;8.232;2022-07-23T13:09:34;6.50;;;5.00;;
15816;SDS011;8009;50.070;8.232;2022-07-23T13:12:07;4.95;;;4.55;;
15816;SDS011;8009;50.070;8.232;2022-07-23T13:14:37;4.68;;;4.28;;
15816;SDS011;8009;50.070;8.232;2022-07-23T13:17:07;5.72;;;5.13;;
15816;SDS011;8009;50.070;8.232;2022-07-23T13:19:36;5.15;;;3.85;;
15816;SDS011;8009;50.070;8.232;2022-07-23T13:22:06;5.15;;;4.70;;
15816;SDS011;8009;50.070;8.232;2022-07-23T13:24:37;5.07;;;4.57;;
15816;SDS011;8009;50.070;8.232;2022-07-23T13:27:08;4.97;;;4.53;;
15816;SDS011;8009;50.070;8.232;2022-07-23T13:29:39;4.72;;;4.32;;
15816;SDS011;8009;50.070;8.232;2022-07-23T13:32:08;5.10;;;4.60;;
15816;SDS011;8009;50.070;8.232;2022-07-23T13:34:38;4.75;;;4.35;;
15816;SDS011;8009;50.070;8.232;2022-07-23T13:37:16;4.85;;;4.45;;
15816;SDS011;8009;50.070;8.232;2022-07-23T13:39:49;5.57;;;4.70;;
15816;SDS011;8009;50.070;8.232;2022-07-23T13:42:18;4.78;;;4.38;;
15816;SDS011;8009;50.070;8.232;2022-07-23T13:44:48;5.38;;;4.88;;
15816;SDS011;8009;50.070;8.232;2022-07-23T13:47:16;5.30;;;4.90;;
15816;SDS011;8009;50.070;8.232;2022-07-23T13:49:45;4.40;;;4.10;;
15816;SDS011;8009;50.070;8.232;2022-07-23T13:52:14;5.13;;;4.72;;
15816;SDS011;8009;50.070;8.232;2022-07-23T13:54:49;4.32;;;3.92;;
15816;SDS011;8009;50.070;8.232;2022-07-23T13:57:18;5.45;;;4.95;;
15816;SDS011;8009;50.070;8.232;2022-07-23T13:59:47;7.75;;;4.50;;
15816;SDS011;8009;50.070;8.232;2022-07-23T14:02:17;5.15;;;4.65;;
15816;SDS011;8009;50.070;8.232;2022-07-23T14:04:46;4.72;;;4.25;;
15816;SDS011;8009;50.070;8.232;2022-07-23T14:07:14;5.00;;;4.40;;
15816;SDS011;8009;50.070;8.232;2022-07-23T14:09:46;4.35;;;4.00;;
15816;SDS011;8009;50.070;8.232;2022-07-23T14:12:18;4.53;;;4.00;;
15816;SDS011;8009;50.070;8.232;2022-07-23T14:14:50;4.70;;;4.30;;
15816;SDS011;8009;50.070;8.232;2022-07-23T14:17:18;4.72;;;4.32;;
15816;SDS011;8009;50.070;8.232;2022-07-23T14:19:47;4.40;;;4.00;;
15816;SDS011;8009;50.070;8.232;2022-07-23T14:22:16;4.97;;;4.13;;
15816;SDS011;8009;50.070;8.232;2022-07-23T14:24:44;6.55;;;4.40;;
15816;SDS011;8009;50.070;8.232;2022-07-23T14:27:15;4.43;;;4.07;;
15816;SDS011;8009;50.070;8.232;2022-07-23T14:29:44;4.45;;;4.15;;
15816;SDS011;8009;50.070;8.232;2022-07-23T14:32:13;4.75;;;4.35;;
15816;SDS011;8009;50.070;8.232;2022-07-23T14:34:52;6.53;;;3.67;;
15816;SDS011;8009;50.070;8.232;2022-07-23T14:37:25;5.30;;;3.60;;
15816;SDS011;8009;50.070;8.232;2022-07-23T14:39:54;4.10;;;3.80;;
15816;SDS011;8009;50.070;8.232;2022-07-23T14:42:25;4.88;;;3.90;;
15816;SDS011;8009;50.070;8.232;2022-07-23T14:44:56;4.50;;;4.10;;
15816;SDS011;8009;50.070;8.232;2022-07-23T14:47:31;3.78;;;3.47;;
15816;SDS011;8009;50.070;8.232;2022-07-23T14:50:02;4.47;;;3.88;;
15816;SDS011;8009;50.070;8.232;2022-07-23T14:52:31;4.22;;;3.65;;
15816;SDS011;8009;50.070;8.232;2022-07-23T14:55:00;5.63;;;3.65;;
15816;SDS011;8009;50.070;8.232;2022-07-23T14:57:32;3.92;;;3.63;;
15816;SDS011;8009;50.070;8.232;2022-07-23T15:00:02;4.15;;;3.85;;
15816;SDS011;8009;50.070;8.232;2022-07-23T15:02:37;4.32;;;3.15;;
15816;SDS011;8009;50.070;8.232;2022-07-23T15:05:10;3.67;;;3.33;;
15816;SDS011;8009;50.070;8.232;2022-07-23T15:07:41;3.95;;;3.65;;
15816;SDS011;8009;50.070;8.232;2022-07-23T15:10:10;4.55;;;3.63;;
15816;SDS011;8009;50.070;8.232;2022-07-23T15:12:42;4.63;;;3.80;;
15816;SDS011;8009;50.070;8.232;2022-07-23T15:15:11;3.58;;;3.30;;
15816;SDS011;8009;50.070;8.232;2022-07-23T15:17:41;6.15;;;3.67;;
15816;SDS011;8009;50.070;8.232;2022-07-23T15:20:11;3.45;;;3.25;;
15816;SDS011;8009;50.070;8.232;2022-07-23T15:22:40;3.50;;;3.13;;
15816;SDS011;8009;50.070;8.232;2022-07-23T15:25:13;4.40;;;3.67;;
15816;SDS011;8009;50.070;8.232;2022-07-23T15:27:48;3.15;;;2.90;;
15816;SDS011;8009;50.070;8.232;2022-07-23T15:30:20;3.40;;;3.10;;